Time;durP1;ratioP1;P1;durP2;ratioP2;P2;SDS_P1;SDS_P2;PMS_P1;PMS_P2;Temp;Humidity;BMP_temperature;BMP_pressure;BME280_temperature;BME280_humidity;BME280_pressure;Samples;Min_cycle;Max_cycle;Signal;HPM_P1;HPM_P2
2022/05/06 00:01:31;;;;;;;14.13;9.88;;;7.40;99.90;;;;;;5010549;28;20585;-67
2022/05/06 00:03:58;;;;;;;15.07;9.77;;;7.30;99.90;;;;;;5012937;28;20049;-67
2022/05/06 00:06:23;;;;;;;12.38;8.20;;;7.30;99.90;;;;;;5011890;28;20479;-67
2022/05/06 00:08:49;;;;;;;15.20;9.85;;;7.20;99.90;;;;;;5034479;28;20117;-67
2022/05/06 00:11:15;;;;;;;13.48;9.18;;;7.30;99.90;;;;;;5031260;28;20403;-67
2022/05/06 00:13:40;;;;;;;17.67;10.25;;;7.20;99.90;;;;;;5050041;28;20049;-67
2022/05/06 00:16:07;;;;;;;18.67;10.10;;;7.20;99.90;;;;;;5031729;28;20132;-67
2022/05/06 00:18:33;;;;;;;12.35;9.65;;;7.20;99.90;;;;;;5049741;28;20557;-67
2022/05/06 00:20:59;;;;;;;16.10;10.27;;;7.20;99.90;;;;;;5030484;28;20174;-66
2022/05/06 00:23:24;;;;;;;16.83;9.73;;;7.20;99.90;;;;;;5031612;28;20135;-67
2022/05/06 00:25:50;;;;;;;16.55;10.27;;;7.20;99.90;;;;;;5032210;28;20059;-67
2022/05/06 00:28:17;;;;;;;15.95;10.23;;;7.30;99.90;;;;;;5031213;28;20056;-67
2022/05/06 00:30:43;;;;;;;17.95;10.45;;;7.20;99.90;;;;;;5048256;28;20057;-67
2022/05/06 00:33:09;;;;;;;13.90;9.75;;;7.30;99.90;;;;;;5030011;28;20081;-67
2022/05/06 00:35:38;;;;;;;12.93;9.48;;;7.30;99.90;;;;;;5029702;28;20049;-67
2022/05/06 00:38:05;;;;;;;16.63;10.23;;;7.40;99.90;;;;;;5030028;28;20124;-67
2022/05/06 00:40:31;;;;;;;18.55;11.50;;;7.30;99.90;;;;;;5029964;28;20064;-67
2022/05/06 00:42:57;;;;;;;18.48;10.98;;;7.30;99.90;;;;;;5012554;28;20538;-66
2022/05/06 00:45:23;;;;;;;15.98;10.13;;;7.30;99.90;;;;;;5011016;28;20049;-67
2022/05/06 00:47:50;;;;;;;16.02;10.50;;;7.40;99.90;;;;;;5027252;28;20139;-67
2022/05/06 00:50:17;;;;;;;19.20;10.65;;;7.40;99.90;;;;;;5028816;28;20483;-66
2022/05/06 00:52:43;;;;;;;20.20;11.32;;;7.40;99.90;;;;;;5029341;28;20045;-66
2022/05/06 00:55:09;;;;;;;16.77;11.88;;;7.40;99.90;;;;;;5011463;28;20045;-67
2022/05/06 00:57:36;;;;;;;18.30;11.73;;;7.50;99.90;;;;;;5011250;28;20129;-66
2022/05/06 01:00:19;;;;;;;18.70;12.07;;;7.40;99.90;;;;;;5011823;28;20093;-66
2022/05/06 01:02:49;;;;;;;19.13;11.50;;;7.40;99.90;;;;;;5026733;28;20053;-67
2022/05/06 01:05:15;;;;;;;19.63;13.13;;;7.40;99.90;;;;;;5028406;28;20470;-67
2022/05/06 01:07:43;;;;;;;18.98;12.32;;;7.40;99.90;;;;;;5026444;28;20299;-67
2022/05/06 01:10:09;;;;;;;22.20;12.93;;;7.40;99.90;;;;;;5029528;28;20045;-66
2022/05/06 01:12:35;;;;;;;20.75;12.48;;;7.40;99.90;;;;;;5026916;28;20146;-66
2022/05/06 01:15:01;;;;;;;20.35;11.70;;;7.40;99.90;;;;;;5027669;28;20081;-67
2022/05/06 01:17:27;;;;;;;18.85;12.13;;;7.40;99.90;;;;;;5028247;28;20045;-66
2022/05/06 01:19:52;;;;;;;17.58;11.85;;;7.40;99.90;;;;;;5025931;28;20150;-67
2022/05/06 01:22:18;;;;;;;18.13;12.38;;;7.40;99.90;;;;;;5028369;28;20060;-66
2022/05/06 01:24:44;;;;;;;25.83;11.43;;;7.40;99.90;;;;;;5010062;28;20049;-66
2022/05/06 01:27:32;;;;;;;25.55;12.48;;;7.30;99.90;;;;;;5029892;28;20100;-66
2022/05/06 01:29:59;;;;;;;19.85;13.18;;;7.30;99.90;;;;;;5027021;28;20069;-66
2022/05/06 01:32:29;;;;;;;19.95;12.70;;;7.30;99.90;;;;;;5014370;28;20192;-66
2022/05/06 01:34:57;;;;;;;25.55;14.02;;;7.30;99.90;;;;;;5040657;28;20466;-67
2022/05/06 01:37:24;;;;;;;17.13;12.50;;;7.30;99.90;;;;;;5007856;28;20056;-66
2022/05/06 01:39:55;;;;;;;21.55;12.48;;;7.30;99.90;;;;;;5042001;28;20393;-67
2022/05/06 01:42:21;;;;;;;22.02;12.80;;;7.30;99.90;;;;;;5019742;28;20087;-66
2022/05/06 01:44:50;;;;;;;17.25;12.85;;;7.20;99.90;;;;;;5004336;28;20061;-66
2022/05/06 01:47:23;;;;;;;25.00;14.27;;;7.20;99.90;;;;;;4999340;28;20107;-66
2022/05/06 01:49:58;;;;;;;30.55;16.10;;;7.30;99.90;;;;;;5006549;28;20491;-67
2022/05/06 01:52:24;;;;;;;24.80;15.65;;;7.20;99.90;;;;;;5009300;28;20096;-66
2022/05/06 01:54:50;;;;;;;23.20;15.85;;;7.20;99.90;;;;;;4990161;28;20049;-66
2022/05/06 01:57:17;;;;;;;26.73;15.02;;;7.20;99.90;;;;;;4991421;28;20107;-66
2022/05/06 01:59:42;;;;;;;25.92;15.25;;;7.20;99.90;;;;;;4989484;28;20137;-66
2022/05/06 02:02:08;;;;;;;24.40;14.23;;;7.10;99.90;;;;;;5017862;28;20120;-66
2022/05/06 02:07:18;;;;;;;23.92;14.82;;;7.20;99.90;;;;;;5027023;28;20075;-66
2022/05/06 02:09:44;;;;;;;26.25;14.68;;;7.20;99.90;;;;;;5010867;28;20052;-66
2022/05/06 02:12:10;;;;;;;19.92;12.85;;;7.20;99.90;;;;;;5020312;28;20038;-67
2022/05/06 02:14:36;;;;;;;30.98;15.00;;;7.10;99.90;;;;;;4991227;28;20045;-67
2022/05/06 02:17:02;;;;;;;21.05;14.18;;;7.10;99.90;;;;;;4973527;28;20054;-66
2022/05/06 02:19:28;;;;;;;19.52;13.60;;;7.10;99.90;;;;;;5008733;28;20058;-66
2022/05/06 02:21:53;;;;;;;22.08;13.48;;;7.10;99.90;;;;;;5007360;28;20033;-66
2022/05/06 02:24:19;;;;;;;17.75;12.57;;;7.10;99.90;;;;;;5025697;28;20049;-66
2022/05/06 02:26:45;;;;;;;21.88;13.85;;;7.00;99.90;;;;;;4993681;28;20045;-66
2022/05/06 02:29:10;;;;;;;26.58;13.45;;;7.00;99.90;;;;;;5025794;28;20149;-67
2022/05/06 02:34:20;;;;;;;21.75;13.02;;;7.00;99.90;;;;;;5010191;28;20056;-66
2022/05/06 02:36:47;;;;;;;20.20;12.50;;;7.00;99.90;;;;;;4990301;28;20137;-66
2022/05/06 02:39:13;;;;;;;20.08;13.68;;;6.90;99.90;;;;;;4990071;28;20122;-66
2022/05/06 02:41:39;;;;;;;21.30;13.48;;;6.90;99.90;;;;;;5023029;28;20074;-66
2022/05/06 02:44:04;;;;;;;21.38;13.18;;;6.90;99.90;;;;;;5007455;28;20045;-66
2022/05/06 02:46:35;;;;;;;18.17;12.45;;;6.90;99.90;;;;;;5001288;28;20094;-67
2022/05/06 02:49:01;;;;;;;;;;;6.90;99.90;;;;;;4971687;28;20050;-66
2022/05/06 02:51:28;;;;;;;25.00;13.15;;;6.90;99.90;;;;;;4987541;28;19925;-67
2022/05/06 02:53:57;;;;;;;25.67;12.25;;;6.90;99.90;;;;;;4999213;28;20045;-66
2022/05/06 02:56:23;;;;;;;20.13;12.13;;;6.90;99.90;;;;;;4993729;28;20056;-66
2022/05/06 02:58:49;;;;;;;25.10;12.63;;;6.80;99.90;;;;;;5008961;28;20041;-67
2022/05/06 03:01:15;;;;;;;27.60;12.65;;;6.80;99.90;;;;;;5024706;28;20046;-67
2022/05/06 03:03:41;;;;;;;15.82;11.70;;;6.70;99.90;;;;;;4989062;28;20072;-66
2022/05/06 03:06:07;;;;;;;18.35;11.75;;;6.70;99.90;;;;;;4993584;28;20042;-66
2022/05/06 03:08:32;;;;;;;19.10;11.88;;;6.60;99.90;;;;;;5008692;28;20049;-67
2022/05/06 03:11:01;;;;;;;18.02;12.82;;;6.60;99.90;;;;;;5009866;28;20052;-66
2022/05/06 03:13:27;;;;;;;21.42;12.90;;;6.60;99.90;;;;;;5008770;28;20088;-66
2022/05/06 03:15:55;;;;;;;20.20;11.90;;;6.60;99.90;;;;;;4994665;28;20049;-67
2022/05/06 03:18:20;;;;;;;22.38;14.43;;;6.60;99.90;;;;;;4991202;28;20052;-66
2022/05/06 03:20:46;;;;;;;16.63;11.68;;;6.60;99.90;;;;;;4992881;28;20136;-66
2022/05/06 03:23:15;;;;;;;14.73;11.00;;;6.60;99.90;;;;;;5012031;28;20046;-67
2022/05/06 03:25:41;;;;;;;14.73;11.50;;;6.70;99.90;;;;;;5011405;28;20522;-66
2022/05/06 03:28:09;;;;;;;18.77;11.70;;;6.70;99.90;;;;;;4993943;28;20058;-66
2022/05/06 03:30:44;;;;;;;19.48;11.63;;;6.60;99.90;;;;;;4993585;28;20491;-66
2022/05/06 03:33:13;;;;;;;15.68;11.70;;;6.60;99.90;;;;;;5012912;28;20042;-66
2022/05/06 03:35:39;;;;;;;17.00;11.25;;;6.60;99.90;;;;;;5013053;28;20056;-67
2022/05/06 03:38:06;;;;;;;18.77;12.07;;;6.50;99.90;;;;;;4979758;28;20052;-66
2022/05/06 03:40:33;;;;;;;18.88;13.38;;;6.50;99.90;;;;;;5013320;28;20050;-66
2022/05/06 03:42:59;;;;;;;18.15;13.63;;;6.40;99.90;;;;;;5029546;28;20133;-66
2022/05/06 03:45:25;;;;;;;18.25;13.52;;;6.40;99.90;;;;;;4996259;28;20042;-66
2022/05/06 03:47:52;;;;;;;19.75;13.18;;;6.40;99.90;;;;;;5025704;28;20057;-66
2022/05/06 03:53:02;;;;;;;14.23;11.50;;;6.50;99.90;;;;;;5027314;28;20503;-67
2022/05/06 03:55:28;;;;;;;18.73;12.82;;;6.50;99.90;;;;;;5032298;28;20041;-67
2022/05/06 03:57:54;;;;;;;17.77;13.98;;;6.60;99.90;;;;;;5030824;28;20529;-66
2022/05/06 04:00:19;;;;;;;20.55;13.95;;;6.60;99.90;;;;;;5030752;28;20041;-67
2022/05/06 04:02:45;;;;;;;17.35;13.15;;;6.60;99.90;;;;;;5030448;28;20068;-67
2022/05/06 04:05:11;;;;;;;20.48;13.35;;;6.70;99.90;;;;;;5048327;28;20135;-67
2022/05/06 04:07:37;;;;;;;16.15;11.90;;;6.70;99.90;;;;;;5050037;28;20087;-66
2022/05/06 04:10:09;;;;;;;16.23;12.02;;;6.80;99.90;;;;;;5048453;28;20449;-66
2022/05/06 04:12:34;;;;;;;14.95;11.82;;;6.80;99.90;;;;;;5048836;28;20052;-66
2022/05/06 04:15:00;;;;;;;15.02;11.13;;;6.80;99.90;;;;;;5048304;28;20080;-66
2022/05/06 04:17:26;;;;;;;12.52;9.38;;;6.80;99.90;;;;;;5048655;28;20083;-66
2022/05/06 04:25:21;;;;;;;11.02;9.77;;;6.90;99.90;;;;;;5068944;28;20052;-67
2022/05/06 04:27:47;;;;;;;11.50;8.95;;;6.90;99.90;;;;;;5068358;28;20135;-66
2022/05/06 04:30:12;;;;;;;11.65;9.60;;;7.00;99.90;;;;;;5051404;28;20160;-66
2022/05/06 04:32:38;;;;;;;11.07;8.93;;;7.10;99.90;;;;;;5029865;28;20103;-66
2022/05/06 04:35:06;;;;;;;11.88;9.45;;;7.20;99.90;;;;;;5030052;28;20434;-66
2022/05/06 04:37:35;;;;;;;13.13;10.13;;;7.20;99.90;;;;;;5013707;28;20052;-66
2022/05/06 04:40:01;;;;;;;15.48;11.80;;;7.30;99.90;;;;;;5047758;28;20096;-66
2022/05/06 04:42:30;;;;;;;15.77;11.48;;;7.40;99.90;;;;;;5048499;28;20056;-66
2022/05/06 04:44:56;;;;;;;16.55;12.27;;;7.50;99.90;;;;;;5047266;28;20049;-66
2022/05/06 04:47:22;;;;;;;14.93;11.88;;;7.50;99.90;;;;;;5009353;28;20660;-66
2022/05/06 04:49:47;;;;;;;14.20;10.88;;;7.60;99.90;;;;;;5029827;28;20044;-66
2022/05/06 04:52:13;;;;;;;13.52;10.05;;;7.60;99.90;;;;;;5029560;28;20063;-66
2022/05/06 04:54:39;;;;;;;20.20;11.50;;;7.70;99.90;;;;;;5048716;28;20067;-66
2022/05/06 04:57:05;;;;;;;14.93;11.30;;;7.80;99.90;;;;;;5029353;28;20071;-66
2022/05/06 04:59:31;;;;;;;19.27;11.55;;;7.80;99.90;;;;;;5047822;28;20084;-66
2022/05/06 05:01:57;;;;;;;16.05;12.23;;;7.90;99.90;;;;;;5029805;28;20045;-66
2022/05/06 05:04:27;;;;;;;14.90;11.57;;;8.00;99.90;;;;;;5047915;28;20091;-66
2022/05/06 05:06:54;;;;;;;;;;;8.00;99.90;;;;;;5031570;28;20095;-67
2022/05/06 05:09:20;;;;;;;18.05;11.40;;;8.10;99.90;;;;;;5062359;28;20351;-66
2022/05/06 05:11:47;;;;;;;21.63;12.63;;;8.20;99.90;;;;;;5029366;28;20503;-66
2022/05/06 05:14:13;;;;;;;18.75;13.90;;;8.30;99.90;;;;;;5047365;28;20111;-66
2022/05/06 05:16:38;;;;;;;18.65;14.23;;;8.40;99.90;;;;;;5040342;28;20051;-66
2022/05/06 05:19:04;;;;;;;22.85;15.10;;;8.50;99.90;;;;;;5049155;28;20044;-66
2022/05/06 05:21:29;;;;;;;25.90;17.17;;;8.60;99.90;;;;;;5067215;28;20041;-67
2022/05/06 05:23:55;;;;;;;28.00;17.35;;;8.60;99.90;;;;;;5033029;28;20124;-66
2022/05/06 05:26:21;;;;;;;30.80;19.25;;;8.70;99.90;;;;;;5047144;28;20087;-66
2022/05/06 05:28:46;;;;;;;31.55;19.55;;;8.90;99.90;;;;;;5049409;28;20071;-66
2022/05/06 05:31:12;;;;;;;40.17;21.05;;;8.90;99.90;;;;;;5046154;28;20083;-66
2022/05/06 05:33:38;;;;;;;39.80;21.52;;;9.10;99.90;;;;;;5047271;28;20088;-66
2022/05/06 05:36:04;;;;;;;38.10;21.35;;;9.20;99.90;;;;;;5028904;28;20095;-66
2022/05/06 05:38:30;;;;;;;47.03;23.95;;;9.30;99.90;;;;;;5031377;28;20040;-66
2022/05/06 05:40:55;;;;;;;38.97;22.83;;;9.50;99.90;;;;;;5032771;28;20199;-66
2022/05/06 05:48:51;;;;;;;44.00;25.50;;;9.90;99.90;;;;;;5045741;28;20045;-66
2022/05/06 05:51:17;;;;;;;45.92;24.67;;;10.00;99.90;;;;;;5044921;28;20063;-66
2022/05/06 05:53:44;;;;;;;54.05;27.30;;;10.10;99.90;;;;;;5045798;28;20044;-66
2022/05/06 05:56:10;;;;;;;48.90;25.35;;;10.30;99.90;;;;;;5028529;28;20807;-66
2022/05/06 05:58:35;;;;;;;47.08;26.15;;;10.50;99.90;;;;;;5045668;28;20045;-66
2022/05/06 06:01:03;;;;;;;49.00;25.90;;;10.60;99.90;;;;;;5046399;28;20041;-66
2022/05/06 06:03:29;;;;;;;58.50;27.75;;;10.70;99.90;;;;;;5057203;28;20046;-67
2022/05/06 06:05:55;;;;;;;58.03;28.40;;;10.90;99.90;;;;;;5029397;28;20049;-66
2022/05/06 06:08:23;;;;;;;55.35;28.00;;;11.10;99.90;;;;;;5047264;28;20279;-66
2022/05/06 06:10:49;;;;;;;60.33;29.70;;;11.30;99.90;;;;;;5023043;28;20127;-66
2022/05/06 06:13:18;;;;;;;53.63;28.90;;;11.40;99.90;;;;;;5028196;28;20124;-66
2022/05/06 06:15:43;;;;;;;59.20;30.02;;;11.50;99.90;;;;;;5046435;28;20051;-66
2022/05/06 06:18:09;;;;;;;51.58;27.23;;;11.60;99.90;;;;;;5046383;28;20117;-66
2022/05/06 06:20:37;;;;;;;51.80;28.70;;;11.70;99.90;;;;;;5045118;28;20462;-66
2022/05/06 06:23:03;;;;;;;57.53;27.95;;;11.70;99.90;;;;;;5044545;28;20059;-66
2022/05/06 06:25:28;;;;;;;54.72;28.17;;;11.90;99.90;;;;;;5046678;28;20041;-66
2022/05/06 06:27:55;;;;;;;60.03;29.38;;;11.90;99.90;;;;;;5046084;28;20041;-66
2022/05/06 06:30:20;;;;;;;58.00;29.98;;;12.10;99.90;;;;;;5046008;28;20055;-66
2022/05/06 06:32:46;;;;;;;60.53;30.58;;;12.30;99.90;;;;;;5028079;28;20426;-67
2022/05/06 06:35:12;;;;;;;69.57;32.60;;;12.40;99.90;;;;;;5045921;28;20071;-66
2022/05/06 06:37:38;;;;;;;61.92;32.00;;;12.50;99.90;;;;;;5028125;28;20868;-66
2022/05/06 06:40:05;;;;;;;66.63;32.30;;;12.60;99.90;;;;;;5028480;28;20041;-66
2022/05/06 06:42:31;;;;;;;63.22;32.67;;;12.60;99.90;;;;;;5045457;28;20044;-66
2022/05/06 06:45:00;;;;;;;63.42;32.92;;;12.60;99.90;;;;;;5045922;28;20087;-66
2022/05/06 06:47:26;;;;;;;59.17;29.65;;;12.70;99.90;;;;;;5055086;28;20140;-66
2022/05/06 06:49:52;;;;;;;52.85;29.48;;;12.70;99.90;;;;;;5006768;28;20053;-66
2022/05/06 06:52:17;;;;;;;64.60;30.10;;;12.70;99.90;;;;;;5024512;28;20057;-66
2022/05/06 06:54:43;;;;;;;56.03;29.65;;;12.70;99.90;;;;;;5029573;28;20369;-66
2022/05/06 06:57:08;;;;;;;55.80;29.70;;;12.80;99.90;;;;;;5032235;28;20045;-66
2022/05/06 06:59:34;;;;;;;52.78;29.02;;;12.90;99.90;;;;;;5031249;28;20056;-66
2022/05/06 07:02:01;;;;;;;58.15;28.95;;;13.00;99.90;;;;;;5014690;28;20562;-66
2022/05/06 07:04:27;;;;;;;45.72;28.33;;;13.00;99.90;;;;;;5029685;28;20425;-66
2022/05/06 07:12:21;;;;;;;44.78;24.00;;;12.70;99.90;;;;;;5013595;28;20057;-66
2022/05/06 07:14:47;;;;;;;32.30;21.10;;;12.60;99.90;;;;;;4994730;28;20046;-66
2022/05/06 07:17:13;;;;;;;38.38;23.50;;;12.60;99.90;;;;;;5010779;28;20048;-66
2022/05/06 07:19:39;;;;;;;37.00;22.35;;;12.50;99.90;;;;;;5012730;28;20399;-66
2022/05/06 07:22:05;;;;;;;37.33;24.15;;;12.40;99.90;;;;;;5012844;28;20137;-67
2022/05/06 07:24:30;;;;;;;33.70;23.15;;;12.40;99.90;;;;;;5015214;28;20128;-66
2022/05/06 07:26:56;;;;;;;36.17;23.05;;;12.40;99.90;;;;;;5046625;28;20038;-66
2022/05/06 07:29:23;;;;;;;39.17;24.23;;;12.30;99.90;;;;;;5016611;28;20060;-67
2022/05/06 07:31:49;;;;;;;38.53;24.27;;;12.40;99.90;;;;;;5019734;28;20038;-66
2022/05/06 07:34:15;;;;;;;43.95;23.25;;;12.60;99.90;;;;;;5030233;28;20051;-67
2022/05/06 07:36:42;;;;;;;39.05;22.98;;;13.00;99.90;;;;;;5023509;28;20052;-66
2022/05/06 07:39:09;;;;;;;29.77;21.20;;;13.60;99.90;;;;;;4994644;28;20057;-67
2022/05/06 07:41:35;;;;;;;37.05;22.15;;;14.00;99.90;;;;;;5010545;28;20057;-67
2022/05/06 07:44:01;;;;;;;33.30;22.95;;;14.40;99.90;;;;;;4988160;28;20129;-67
2022/05/06 07:46:27;;;;;;;38.60;22.83;;;14.60;99.90;;;;;;5021651;28;20596;-67
2022/05/06 07:48:53;;;;;;;35.00;23.70;;;14.70;99.90;;;;;;5023188;28;20133;-66
2022/05/06 07:51:18;;;;;;;36.63;22.73;;;14.70;99.90;;;;;;5014791;28;20080;-66
2022/05/06 07:53:44;;;;;;;38.05;22.60;;;14.70;99.90;;;;;;5015481;28;20040;-67
2022/05/06 07:56:11;;;;;;;36.22;23.13;;;14.80;99.90;;;;;;5016389;28;20534;-66
2022/05/06 07:58:38;;;;;;;32.78;22.48;;;15.00;99.90;;;;;;5046967;28;20115;-66
2022/05/06 08:01:05;;;;;;;34.67;23.42;;;15.30;99.90;;;;;;5052264;28;20048;-66
2022/05/06 08:06:15;;;;;;;36.45;23.45;;;15.60;99.90;;;;;;5015556;28;20080;-66
2022/05/06 08:08:41;;;;;;;33.22;21.45;;;15.80;99.90;;;;;;5047113;28;20079;-66
2022/05/06 08:11:07;;;;;;;33.50;22.20;;;15.90;99.90;;;;;;5029649;28;20072;-66
2022/05/06 08:13:33;;;;;;;33.25;23.60;;;16.10;99.80;;;;;;5029427;28;20103;-66
2022/05/06 08:15:59;;;;;;;35.65;25.35;;;16.20;98.50;;;;;;5048477;28;20475;-66
2022/05/06 08:18:25;;;;;;;35.28;25.10;;;16.00;98.00;;;;;;5048172;28;20372;-66
2022/05/06 08:20:52;;;;;;;31.67;22.30;;;15.80;99.90;;;;;;5046842;28;20048;-67
2022/05/06 08:23:22;;;;;;;34.58;22.50;;;15.60;99.90;;;;;;5028719;28;20056;-68
2022/05/06 08:25:52;;;;;;;33.20;20.65;;;15.60;99.90;;;;;;5028481;28;20107;-68
2022/05/06 08:28:19;;;;;;;30.20;20.30;;;15.50;99.90;;;;;;5048237;28;20067;-68
2022/05/06 08:30:49;;;;;;;29.08;19.13;;;15.40;99.90;;;;;;4998692;28;20402;-68
2022/05/06 08:33:15;;;;;;;29.98;21.17;;;15.20;99.90;;;;;;5048239;28;20111;-67
2022/05/06 08:35:44;;;;;;;25.00;18.70;;;15.30;99.90;;;;;;5048547;28;20053;-67
2022/05/06 08:38:11;;;;;;;28.95;18.92;;;15.30;99.90;;;;;;5047997;28;20045;-68
2022/05/06 08:40:37;;;;;;;25.50;16.73;;;15.50;99.90;;;;;;5048069;28;20060;-68
2022/05/06 08:43:04;;;;;;;27.10;18.45;;;15.70;99.90;;;;;;5031412;28;20047;-67
2022/05/06 08:51:02;;;;;;;21.50;17.38;;;16.50;99.90;;;;;;5048115;28;20053;-68
2022/05/06 08:53:33;;;;;;;19.13;15.38;;;16.90;96.10;;;;;;5028539;28;20154;-68
2022/05/06 08:56:02;;;;;;;21.55;16.27;;;16.70;92.90;;;;;;5049794;28;20048;-67
2022/05/06 08:58:29;;;;;;;21.08;16.55;;;16.90;95.80;;;;;;5065807;28;20041;-68
2022/05/06 09:01:08;;;;;;;21.00;13.98;;;17.20;94.70;;;;;;5049334;28;20045;-68
2022/05/06 09:03:38;;;;;;;21.35;13.80;;;17.00;90.90;;;;;;5036117;28;20073;-68
2022/05/06 09:06:04;;;;;;;20.48;15.52;;;16.80;91.80;;;;;;5066046;28;20284;-68
2022/05/06 09:08:42;;;;;;;23.95;16.02;;;16.90;97.20;;;;;;5045978;28;20048;-68
2022/05/06 09:11:08;;;;;;;17.35;13.45;;;17.10;94.50;;;;;;5047973;28;20048;-68
2022/05/06 09:13:58;;;;;;;18.15;12.68;;;17.00;90.70;;;;;;5048377;28;20517;-68
2022/05/06 09:16:42;;;;;;;20.73;12.88;;;16.90;95.20;;;;;;5046985;28;20041;-69
2022/05/06 09:19:17;;;;;;;19.67;13.88;;;16.90;93.80;;;;;;5029792;28;20056;-69
2022/05/06 09:22:06;;;;;;;20.05;13.20;;;16.80;92.60;;;;;;5028394;28;20128;-68
2022/05/06 09:24:33;;;;;;;14.38;11.38;;;16.80;92.50;;;;;;5046979;28;20142;-69
2022/05/06 09:27:08;;;;;;;13.05;11.48;;;16.90;93.40;;;;;;5046843;28;20076;-69
2022/05/06 09:29:45;;;;;;;13.65;11.77;;;16.80;91.50;;;;;;5045289;28;20045;-69
2022/05/06 09:32:19;;;;;;;18.00;12.07;;;17.00;96.70;;;;;;5054879;28;20040;-69
2022/05/06 09:35:13;;;;;;;20.13;10.90;;;17.10;91.40;;;;;;5034569;28;20089;-69
2022/05/06 09:37:46;;;;;;;11.43;9.80;;;17.00;81.80;;;;;;5012741;28;20048;-69
2022/05/06 09:40:21;;;;;;;13.10;10.57;;;17.10;88.90;;;;;;5046162;28;20040;-69
2022/05/06 09:42:53;;;;;;;13.63;9.80;;;17.30;86.60;;;;;;5029883;28;20049;-68
2022/05/06 09:45:28;;;;;;;13.25;10.15;;;17.30;80.90;;;;;;5028094;28;20422;-69
2022/05/06 09:48:01;;;;;;;11.00;9.38;;;17.50;85.80;;;;;;5028720;28;20091;-69
2022/05/06 09:50:42;;;;;;;9.80;8.80;;;17.80;74.50;;;;;;4999640;28;20478;-69
2022/05/06 09:53:12;;;;;;;8.48;7.63;;;17.90;80.70;;;;;;5018127;28;20046;-69
2022/05/06 09:55:46;;;;;;;12.65;8.50;;;17.60;66.80;;;;;;5046457;28;20087;-70
2022/05/06 09:58:13;;;;;;;13.25;8.05;;;17.40;71.10;;;;;;5029230;28;20466;-69
2022/05/06 10:00:39;;;;;;;9.88;7.32;;;17.40;81.60;;;;;;4995719;28;20529;-68
2022/05/06 10:03:05;;;;;;;6.75;5.97;;;17.50;76.30;;;;;;5032112;28;20032;-69
2022/05/06 10:05:34;;;;;;;6.75;6.15;;;17.50;73.70;;;;;;5047665;28;20123;-69
2022/05/06 10:08:16;;;;;;;6.32;5.65;;;17.70;66.40;;;;;;5048597;28;20066;-69
2022/05/06 10:10:54;;;;;;;6.15;5.53;;;17.80;68.60;;;;;;5065921;28;20044;-69
2022/05/06 10:13:22;;;;;;;5.72;4.78;;;18.00;65.10;;;;;;5046563;28;20044;-69
2022/05/06 10:15:53;;;;;;;7.40;6.00;;;18.10;60.70;;;;;;5028362;28;20163;-68
2022/05/06 10:18:37;;;;;;;6.45;5.15;;;18.20;63.10;;;;;;5027888;28;20104;-69
2022/05/06 10:21:07;;;;;;;4.13;3.80;;;18.10;60.10;;;;;;5021026;28;20058;-68
2022/05/06 10:23:43;;;;;;;4.28;3.97;;;18.20;60.30;;;;;;5045936;28;20136;-70
2022/05/06 10:26:09;;;;;;;4.65;4.15;;;18.40;53.30;;;;;;5028477;28;20045;-69
2022/05/06 10:34:11;;;;;;;5.03;4.50;;;18.70;47.60;;;;;;5029442;28;20456;-69
2022/05/06 10:36:41;;;;;;;4.30;3.90;;;18.60;47.00;;;;;;5027234;28;20626;-69
2022/05/06 10:39:32;;;;;;;5.80;3.70;;;18.50;43.20;;;;;;5027365;28;20525;-69
2022/05/06 10:42:09;;;;;;;4.70;4.30;;;18.50;39.10;;;;;;5045564;28;20116;-69
2022/05/06 10:44:39;;;;;;;6.78;4.57;;;18.40;45.60;;;;;;5027202;28;20052;-69
2022/05/06 10:47:11;;;;;;;3.70;3.40;;;18.30;47.00;;;;;;5057178;28;20057;-69
2022/05/06 10:49:39;;;;;;;6.18;4.05;;;18.50;42.70;;;;;;5043967;28;20412;-69
2022/05/06 10:52:23;;;;;;;2.95;2.85;;;18.60;45.50;;;;;;5027786;28;20132;-69
2022/05/06 10:54:54;;;;;;;4.53;4.10;;;18.50;41.00;;;;;;5044423;28;20057;-69
2022/05/06 10:57:24;;;;;;;7.00;6.40;;;18.50;46.30;;;;;;5028444;28;20043;-69
2022/05/06 11:00:05;;;;;;;6.70;6.10;;;18.30;48.90;;;;;;5026998;28;20060;-69
2022/05/06 11:02:36;;;;;;;6.18;5.57;;;18.10;56.40;;;;;;5025857;28;20056;-69
2022/05/06 11:05:08;;;;;;;5.15;4.53;;;18.00;65.10;;;;;;5026054;28;20452;-68
2022/05/06 11:07:36;;;;;;;3.80;3.38;;;18.10;61.10;;;;;;5008915;28;20053;-69
2022/05/06 11:10:20;;;;;;;5.07;3.60;;;18.40;63.80;;;;;;5026896;28;20052;-70
2022/05/06 11:12:51;;;;;;;3.63;3.42;;;18.70;48.50;;;;;;5026889;28;20061;-69
2022/05/06 11:15:37;;;;;;;7.70;3.63;;;18.80;44.60;;;;;;5027492;28;20088;-70
2022/05/06 11:18:05;;;;;;;3.13;2.90;;;18.90;46.20;;;;;;5009377;28;20067;-69
2022/05/06 11:20:36;;;;;;;4.35;3.55;;;18.90;42.10;;;;;;5026462;28;20041;-69
2022/05/06 11:23:09;;;;;;;2.72;2.53;;;18.90;39.20;;;;;;5027099;28;20481;-69
2022/05/06 11:25:37;;;;;;;3.00;2.58;;;19.10;45.80;;;;;;5044403;28;20047;-69
2022/05/06 11:28:30;;;;;;;2.53;1.90;;;19.00;40.60;;;;;;5026579;28;20174;-69
2022/05/06 11:30:56;;;;;;;2.75;2.10;;;19.00;38.80;;;;;;5027064;28;20092;-69
2022/05/06 11:33:34;;;;;;;2.67;2.05;;;19.10;42.90;;;;;;5026080;28;20048;-68
2022/05/06 11:36:02;;;;;;;2.53;1.67;;;19.10;35.90;;;;;;5041230;28;20083;-69
2022/05/06 11:38:32;;;;;;;2.10;2.00;;;19.00;35.20;;;;;;5008361;28;20040;-69
2022/05/06 11:41:14;;;;;;;5.95;2.10;;;19.00;32.30;;;;;;5009058;28;20514;-69
2022/05/06 11:43:44;;;;;;;1.50;1.50;;;19.00;32.80;;;;;;5010908;28;20053;-69
2022/05/06 11:49:02;;;;;;;2.97;1.63;;;19.10;31.70;;;;;;5043767;28;20119;-69
2022/05/06 11:51:43;;;;;;;6.15;1.35;;;19.30;27.00;;;;;;5048721;28;20128;-69
2022/05/06 11:54:09;;;;;;;1.98;1.45;;;19.30;29.20;;;;;;5048810;28;20107;-70
2022/05/06 11:56:36;;;;;;;1.88;1.77;;;19.50;28.00;;;;;;5013530;28;20041;-68
2022/05/06 11:59:04;;;;;;;5.75;2.45;;;19.60;29.50;;;;;;5040990;28;20052;-69
2022/05/06 12:01:34;;;;;;;1.88;1.67;;;19.70;23.90;;;;;;5045340;28;20124;-69
2022/05/06 12:04:08;;;;;;;4.22;1.98;;;19.80;26.10;;;;;;5048857;28;20049;-69
2022/05/06 12:06:38;;;;;;;3.25;2.20;;;19.90;26.20;;;;;;5013571;28;20045;-69
2022/05/06 12:09:14;;;;;;;2.22;2.08;;;20.00;30.90;;;;;;5029945;28;20036;-70
2022/05/06 12:11:43;;;;;;;4.45;3.30;;;20.10;26.40;;;;;;5048138;28;20052;-69
2022/05/06 12:14:19;;;;;;;5.38;4.97;;;20.10;29.70;;;;;;5048768;28;20124;-70
2022/05/06 12:17:02;;;;;;;5.88;5.28;;;19.50;51.80;;;;;;5022756;28;20081;-70
2022/05/06 12:19:45;;;;;;;5.13;4.63;;;18.70;59.30;;;;;;5041730;28;20048;-70
2022/05/06 12:22:26;;;;;;;5.00;4.60;;;18.40;53.90;;;;;;5050463;28;20053;-70
2022/05/06 12:24:55;;;;;;;5.30;4.82;;;18.20;75.70;;;;;;5050225;28;20052;-71
2022/05/06 12:27:33;;;;;;;5.82;4.22;;;18.30;74.40;;;;;;5050696;28;20517;-70
2022/05/06 12:30:00;;;;;;;4.00;3.70;;;18.40;76.10;;;;;;5043506;28;20049;-70
2022/05/06 12:32:28;;;;;;;4.05;3.75;;;18.40;66.60;;;;;;5013108;28;20037;-70
2022/05/06 12:35:06;;;;;;;6.45;3.47;;;18.40;70.10;;;;;;5048012;28;20037;-71
2022/05/06 12:37:32;;;;;;;3.83;3.53;;;18.30;57.50;;;;;;5048127;28;20045;-70
2022/05/06 12:40:02;;;;;;;6.45;3.45;;;18.30;65.00;;;;;;5016228;28;20086;-70
2022/05/06 12:42:28;;;;;;;3.58;3.28;;;18.40;61.60;;;;;;5050159;28;20059;-70
2022/05/06 12:44:53;;;;;;;3.83;3.50;;;18.50;57.50;;;;;;5049939;28;20283;-70
2022/05/06 12:50:10;;;;;;;5.72;4.00;;;18.40;60.20;;;;;;5045582;28;20485;-71
2022/05/06 12:52:36;;;;;;;4.38;4.05;;;18.40;60.60;;;;;;5026450;28;20045;-71
2022/05/06 12:55:06;;;;;;;4.60;3.85;;;18.20;56.90;;;;;;5026493;28;20402;-70
2022/05/06 12:57:32;;;;;;;4.80;4.30;;;18.00;66.30;;;;;;5026741;28;20053;-69
2022/05/06 12:59:58;;;;;;;6.88;4.32;;;17.80;60.50;;;;;;5027385;28;20510;-70
2022/05/06 13:02:24;;;;;;;4.40;4.07;;;17.70;70.50;;;;;;5027228;28;20061;-69
2022/05/06 13:04:50;;;;;;;5.50;3.75;;;17.70;74.30;;;;;;5026129;28;20132;-70
2022/05/06 13:07:15;;;;;;;5.25;3.72;;;17.90;69.30;;;;;;5026680;28;20049;-70
2022/05/06 13:09:41;;;;;;;4.65;3.60;;;18.10;70.10;;;;;;5025913;28;20041;-70
2022/05/06 13:12:09;;;;;;;4.20;3.78;;;18.10;71.40;;;;;;5035695;28;20057;-70
2022/05/06 13:14:35;;;;;;;5.47;4.45;;;18.30;77.30;;;;;;5046210;28;20052;-70
2022/05/06 13:17:01;;;;;;;4.20;3.92;;;18.40;69.70;;;;;;5045516;28;20129;-70
2022/05/06 13:19:29;;;;;;;4.50;3.88;;;18.40;62.50;;;;;;5046784;28;20161;-70
2022/05/06 13:21:55;;;;;;;6.40;4.50;;;18.30;59.20;;;;;;5043557;28;20638;-71
2022/05/06 13:24:23;;;;;;;5.90;3.42;;;18.20;73.50;;;;;;5046244;28;20396;-70
2022/05/06 13:26:49;;;;;;;5.05;4.30;;;18.30;62.40;;;;;;5045464;28;20049;-70
2022/05/06 13:29:15;;;;;;;4.20;3.80;;;18.20;79.40;;;;;;5047279;28;20095;-70